Time;durP1;ratioP1;P1;durP2;ratioP2;P2;SDS_P1;SDS_P2;PMS_P1;PMS_P2;Temp;Humidity;BMP_temperature;BMP_pressure;BME280_temperature;BME280_humidity;BME280_pressure;Samples;Min_cycle;Max_cycle;Signal;HPM_P1;HPM_P2
2023/04/11 00:00:27;;;;;;;;;;;;;;;15.12;46.55;99443.00;1088138;54;19965;-80
2023/04/11 00:01:31;;;;;;;;;;;;;;;15.15;46.77;99433.69;1088320;54;19939;-80
2023/04/11 00:02:53;;;;;;;;;;;;;;;15.19;47.28;99426.94;1094899;39;20615;-80
2023/04/11 00:03:57;;;;;;;;;;;;;;;15.15;47.76;99420.25;1089675;39;20541;-81
2023/04/11 00:05:07;;;;;;;;;;;;;;;15.07;48.11;99426.56;1088325;54;19950;-80
2023/04/11 00:06:08;;;;;;;;;;;;;;;15.09;48.26;99421.81;1088428;54;19942;-80
2023/04/11 00:07:24;;;;;;;;;;;;;;;15.04;49.32;99435.84;1088773;46;19946;-81
2023/04/11 00:08:25;;;;;;;;;;;;;;;14.89;51.37;99429.69;1088367;54;19939;-81
2023/04/11 00:09:48;;;;;;;;;;;;;;;14.76;52.76;99428.47;1088351;54;19926;-80
2023/04/11 00:10:49;;;;;;;;;;;;;;;14.59;53.67;99432.34;1088449;54;19942;-81
2023/04/11 00:11:57;;;;;;;;;;;;;;;14.49;54.44;99438.03;1088280;54;19951;-82
2023/04/11 00:12:59;;;;;;;;;;;;;;;14.34;55.86;99432.63;1088040;54;19949;-81
2023/04/11 00:14:04;;;;;;;;;;;;;;;14.29;56.18;99437.72;1087872;54;19957;-82
2023/04/11 00:15:08;;;;;;;;;;;;;;;14.31;56.67;99441.06;1087216;54;19934;-81
2023/04/11 00:16:12;;;;;;;;;;;;;;;14.28;56.93;99446.81;1087878;54;19943;-81
2023/04/11 00:17:23;;;;;;;;;;;;;;;14.12;57.27;99437.88;1087802;54;19953;-80
2023/04/11 00:18:27;;;;;;;;;;;;;;;14.08;58.38;99438.44;1088637;46;19946;-82
2023/04/11 00:19:32;;;;;;;;;;;;;;;14.17;57.09;99430.09;1087761;54;19930;-81
2023/04/11 00:20:36;;;;;;;;;;;;;;;14.06;57.93;99424.34;1088589;46;19951;-80
2023/04/11 00:21:38;;;;;;;;;;;;;;;13.99;58.17;99426.91;1087213;54;19950;-81
2023/04/11 00:22:42;;;;;;;;;;;;;;;14.00;58.15;99424.06;1087337;54;19946;-81
2023/04/11 00:23:44;;;;;;;;;;;;;;;14.12;58.39;99424.44;1087402;54;19951;-80
2023/04/11 00:24:47;;;;;;;;;;;;;;;14.01;58.28;99423.06;1087557;54;19950;-82
2023/04/11 00:25:50;;;;;;;;;;;;;;;14.01;58.43;99419.50;1087570;54;19957;-80
2023/04/11 00:26:53;;;;;;;;;;;;;;;14.07;58.12;99416.13;1086850;54;19946;-80
2023/04/11 00:27:57;;;;;;;;;;;;;;;14.10;58.41;99414.91;1087861;39;20357;-81
2023/04/11 00:29:01;;;;;;;;;;;;;;;14.03;58.99;99420.16;1087156;54;19945;-81
2023/04/11 00:30:04;;;;;;;;;;;;;;;14.01;59.28;99420.38;1087093;54;19962;-82
2023/04/11 00:31:09;;;;;;;;;;;;;;;14.08;59.31;99431.19;1087295;54;19955;-80
2023/04/11 00:32:11;;;;;;;;;;;;;;;14.04;59.34;99419.97;1090227;39;20415;-81
2023/04/11 00:33:31;;;;;;;;;;;;;;;13.97;59.93;99421.75;1087365;54;19926;-81
2023/04/11 00:34:35;;;;;;;;;;;;;;;13.97;60.62;99415.53;1086725;54;19958;-81
2023/04/11 00:35:40;;;;;;;;;;;;;;;13.92;61.10;99420.59;1087588;39;20441;-79
2023/04/11 00:36:41;;;;;;;;;;;;;;;13.78;61.46;99409.66;1087667;39;20511;-80
2023/04/11 00:37:53;;;;;;;;;;;;;;;13.72;61.57;99419.28;1087080;54;20477;-80
2023/04/11 00:38:54;;;;;;;;;;;;;;;13.70;61.82;99426.66;1087273;54;19946;-80
2023/04/11 00:39:58;;;;;;;;;;;;;;;13.73;61.62;99417.41;1087342;54;19943;-81
2023/04/11 00:40:59;;;;;;;;;;;;;;;13.66;62.15;99413.78;1087093;54;19927;-80
2023/04/11 00:42:10;;;;;;;;;;;;;;;13.67;61.62;99418.97;1087016;54;19946;-80
2023/04/11 00:43:11;;;;;;;;;;;;;;;13.66;61.75;99419.97;1086883;54;19954;-80
2023/04/11 00:44:43;;;;;;;;;;;;;;;13.75;61.95;99417.22;1087142;54;19923;-80
2023/04/11 00:45:44;;;;;;;;;;;;;;;13.71;62.27;99420.28;1087024;54;19946;-80
2023/04/11 00:47:12;;;;;;;;;;;;;;;13.71;62.37;99416.75;1086538;54;19946;-81
2023/04/11 00:48:14;;;;;;;;;;;;;;;13.64;63.14;99413.13;1087120;39;20448;-80
2023/04/11 00:49:20;;;;;;;;;;;;;;;13.60;64.03;99411.84;1086605;54;19954;-82
2023/04/11 00:50:24;;;;;;;;;;;;;;;13.72;62.69;99410.38;1086557;54;19946;-80
2023/04/11 00:51:40;;;;;;;;;;;;;;;13.63;64.16;99414.13;1087145;31;20536;-80
2023/04/11 00:52:45;;;;;;;;;;;;;;;13.63;64.22;99417.66;1086554;39;20344;-80
2023/04/11 00:53:50;;;;;;;;;;;;;;;13.60;64.19;99418.03;1086482;54;19958;-80
2023/04/11 00:54:51;;;;;;;;;;;;;;;13.53;65.49;99417.91;1086109;54;19939;-79
2023/04/11 00:56:04;;;;;;;;;;;;;;;13.44;65.77;99418.16;1086261;54;19973;-80
2023/04/11 00:57:06;;;;;;;;;;;;;;;13.44;66.29;99413.59;1086492;54;19998;-80
2023/04/11 00:58:19;;;;;;;;;;;;;;;13.38;67.20;99414.28;1086330;54;20382;-80
2023/04/11 00:59:20;;;;;;;;;;;;;;;13.46;65.47;99411.59;1086450;46;19946;-80
2023/04/11 01:00:41;;;;;;;;;;;;;;;13.40;67.10;99407.75;1086374;54;19973;-80
2023/04/11 01:01:42;;;;;;;;;;;;;;;13.45;67.12;99406.41;1086344;54;20453;-79
2023/04/11 01:02:46;;;;;;;;;;;;;;;13.37;66.83;99413.44;1086242;54;20480;-79
2023/04/11 01:03:48;;;;;;;;;;;;;;;13.40;66.19;99417.69;1086353;54;19945;-80
2023/04/11 01:04:54;;;;;;;;;;;;;;;13.33;67.19;99420.19;1086116;54;19950;-79
2023/04/11 01:06:12;;;;;;;;;;;;;;;13.26;68.13;99432.66;1086163;54;19950;-80
2023/04/11 01:07:16;;;;;;;;;;;;;;;13.18;69.00;99436.22;1086156;54;19953;-80
2023/04/11 01:08:18;;;;;;;;;;;;;;;13.15;69.94;99447.31;1086414;54;19954;-80
2023/04/11 01:09:23;;;;;;;;;;;;;;;13.05;70.42;99446.69;1086181;54;19953;-80
2023/04/11 01:10:36;;;;;;;;;;;;;;;12.89;71.92;99445.75;1086302;54;19942;-79
2023/04/11 01:11:38;;;;;;;;;;;;;;;12.91;71.19;99441.06;1086557;54;19953;-80
2023/04/11 01:12:52;;;;;;;;;;;;;;;12.97;71.65;99439.53;1086685;54;19958;-79
2023/04/11 01:13:54;;;;;;;;;;;;;;;12.92;71.34;99442.75;1086328;54;19951;-80
2023/04/11 01:15:06;;;;;;;;;;;;;;;12.83;72.68;99453.66;1086394;54;19962;-80
2023/04/11 01:16:08;;;;;;;;;;;;;;;12.77;73.78;99455.19;1086620;54;19935;-80
2023/04/11 01:17:13;;;;;;;;;;;;;;;12.66;74.84;99460.97;1086629;54;19950;-81
2023/04/11 01:18:14;;;;;;;;;;;;;;;12.52;76.14;99463.31;1086688;47;19958;-80
2023/04/11 01:19:20;;;;;;;;;;;;;;;12.36;77.14;99458.00;1086422;54;19946;-80
2023/04/11 01:20:23;;;;;;;;;;;;;;;12.31;77.43;99458.53;1086545;54;19943;-79
2023/04/11 01:21:36;;;;;;;;;;;;;;;12.43;76.86;99450.94;1086687;54;19951;-81
2023/04/11 01:22:40;;;;;;;;;;;;;;;12.49;76.92;99452.94;1086958;54;19956;-80
2023/04/11 01:23:53;;;;;;;;;;;;;;;12.44;77.44;99455.31;1087038;54;19947;-80
2023/04/11 01:24:55;;;;;;;;;;;;;;;12.39;78.14;99453.16;1087493;47;19950;-81
2023/04/11 01:26:00;;;;;;;;;;;;;;;12.31;78.45;99464.72;1088988;39;20362;-80
2023/04/11 01:27:09;;;;;;;;;;;;;;;12.38;78.05;99455.97;1087071;54;19947;-81
2023/04/11 01:28:13;;;;;;;;;;;;;;;12.33;78.61;99460.03;1087189;54;20461;-79
2023/04/11 01:29:26;;;;;;;;;;;;;;;12.38;78.49;99455.97;1087159;54;19950;-81
2023/04/11 01:30:30;;;;;;;;;;;;;;;12.24;79.21;99458.38;1087013;54;19942;-80
2023/04/11 01:31:38;;;;;;;;;;;;;;;12.35;78.30;99467.88;1087195;54;19951;-80
2023/04/11 01:32:42;;;;;;;;;;;;;;;12.28;79.56;99461.53;1087430;54;20603;-80
2023/04/11 01:33:50;;;;;;;;;;;;;;;12.24;80.52;99458.38;1087307;54;19950;-80
2023/04/11 01:34:55;;;;;;;;;;;;;;;12.17;81.64;99460.06;1087403;54;20273;-80
2023/04/11 01:35:58;;;;;;;;;;;;;;;11.88;83.29;99463.22;1087121;54;19947;-81
2023/04/11 01:37:02;;;;;;;;;;;;;;;11.89;83.30;99459.53;1087532;54;19965;-80
2023/04/11 01:38:10;;;;;;;;;;;;;;;11.80;84.03;99456.03;1087197;54;19951;-81
2023/04/11 01:39:16;;;;;;;;;;;;;;;11.86;84.07;99453.50;1087509;54;19958;-81
2023/04/11 01:40:20;;;;;;;;;;;;;;;11.71;84.98;99458.69;1087499;54;19947;-81
2023/04/11 01:41:28;;;;;;;;;;;;;;;11.70;85.84;99465.06;1087750;54;19943;-80
2023/04/11 01:42:33;;;;;;;;;;;;;;;11.73;86.49;99473.75;1087838;54;19954;-81
2023/04/11 01:43:40;;;;;;;;;;;;;;;11.71;86.09;99477.41;1087710;54;19942;-81
2023/04/11 01:44:44;;;;;;;;;;;;;;;11.76;84.97;99484.94;1088043;39;20459;-80
2023/04/11 01:45:46;;;;;;;;;;;;;;;11.79;85.26;99475.78;1087888;54;19942;-81
2023/04/11 01:46:50;;;;;;;;;;;;;;;11.79;85.93;99481.13;1088699;47;19953;-80
2023/04/11 01:47:51;;;;;;;;;;;;;;;11.74;85.77;99480.78;1087383;54;19949;-81
2023/04/11 01:48:56;;;;;;;;;;;;;;;11.75;85.82;99479.78;1087304;54;19943;-81
2023/04/11 01:49:58;;;;;;;;;;;;;;;11.67;86.51;99472.56;1087359;54;19939;-80
2023/04/11 01:51:02;;;;;;;;;;;;;;;11.64;86.71;99484.44;1097809;31;20562;-80
2023/04/11 01:52:03;;;;;;;;;;;;;;;11.56;87.94;99487.13;1087389;54;19977;-81
2023/04/11 01:53:06;;;;;;;;;;;;;;;11.54;88.65;99481.94;1087309;54;19998;-80
2023/04/11 01:54:21;;;;;;;;;;;;;;;11.53;89.03;99482.09;1087350;54;19955;-81
2023/04/11 01:55:25;;;;;;;;;;;;;;;11.62;88.55;99478.41;1087435;54;19943;-80
2023/04/11 01:56:35;;;;;;;;;;;;;;;11.67;88.16;99470.75;1087509;54;20519;-80
2023/04/11 01:57:39;;;;;;;;;;;;;;;11.64;87.49;99465.72;1087390;54;19973;-80
2023/04/11 01:58:43;;;;;;;;;;;;;;;11.58;88.37;99466.38;1087198;54;19949;-80
2023/04/11 01:59:47;;;;;;;;;;;;;;;11.63;88.60;99474.75;1087100;54;19943;-81
2023/04/11 02:00:51;;;;;;;;;;;;;;;11.65;88.46;99479.94;1087366;54;19947;-81
2023/04/11 02:01:55;;;;;;;;;;;;;;;11.78;86.57;99468.75;1088241;39;20570;-80
2023/04/11 02:03:03;;;;;;;;;;;;;;;11.79;87.19;99454.34;1087616;54;19942;-80
2023/04/11 02:04:07;;;;;;;;;;;;;;;11.66;87.39;99453.00;1087751;54;19951;-81
2023/04/11 02:05:17;;;;;;;;;;;;;;;11.67;87.83;99454.69;1087653;54;19943;-80
2023/04/11 02:06:21;;;;;;;;;;;;;;;11.66;88.09;99444.97;1088023;54;19951;-83
2023/04/11 02:07:30;;;;;;;;;;;;;;;11.52;88.86;99442.97;1087532;54;19942;-80
2023/04/11 02:08:33;;;;;;;;;;;;;;;11.59;88.93;99452.00;1087637;54;19955;-80
2023/04/11 02:09:40;;;;;;;;;;;;;;;11.58;89.23;99453.00;1087738;54;19942;-80
2023/04/11 02:10:44;;;;;;;;;;;;;;;11.57;89.21;99454.00;1087781;54;19942;-81
2023/04/11 02:11:46;;;;;;;;;;;;;;;11.58;89.57;99457.50;1089098;39;20579;-81
2023/04/11 02:12:50;;;;;;;;;;;;;;;11.64;88.54;99463.03;1087192;54;20489;-80
2023/04/11 02:13:51;;;;;;;;;;;;;;;11.71;87.83;99463.22;1087190;54;19947;-80
2023/04/11 02:14:55;;;;;;;;;;;;;;;11.75;87.18;99458.34;1087124;54;20662;-81
2023/04/11 02:15:56;;;;;;;;;;;;;;;11.76;87.43;99462.72;1086466;39;20672;-81
2023/04/11 02:17:00;;;;;;;;;;;;;;;11.78;86.94;99466.06;1087095;54;19958;-80
2023/04/11 02:18:02;;;;;;;;;;;;;;;11.77;87.53;99464.38;1087242;54;19942;-79
2023/04/11 02:19:06;;;;;;;;;;;;;;;11.77;87.23;99459.84;1088263;31;20365;-80
2023/04/11 02:20:20;;;;;;;;;;;;;;;11.79;86.49;99452.50;1087101;54;19962;-80
2023/04/11 02:21:23;;;;;;;;;;;;;;;11.70;86.72;99451.69;1086948;54;19973;-81
2023/04/11 02:22:27;;;;;;;;;;;;;;;11.70;87.73;99457.03;1087117;54;20948;-80
2023/04/11 02:23:34;;;;;;;;;;;;;;;11.69;87.62;99460.72;1087665;47;19974;-80
2023/04/11 02:24:42;;;;;;;;;;;;;;;11.69;87.45;99474.09;1087487;54;19965;-80
2023/04/11 02:25:46;;;;;;;;;;;;;;;11.78;86.65;99480.28;1087538;54;19974;-80
2023/04/11 02:26:56;;;;;;;;;;;;;;;11.78;86.58;99479.44;1089095;39;20436;-81
2023/04/11 02:28:02;;;;;;;;;;;;;;;11.79;87.21;99483.81;1088118;47;20015;-80
2023/04/11 02:29:08;;;;;;;;;;;;;;;11.73;87.24;99484.44;1088025;54;19938;-81
2023/04/11 02:30:09;;;;;;;;;;;;;;;11.65;87.92;99486.13;1088471;46;19945;-80
2023/04/11 02:31:16;;;;;;;;;;;;;;;11.68;87.88;99480.44;1088008;54;19963;-80
2023/04/11 02:32:17;;;;;;;;;;;;;;;11.81;86.23;99476.41;1087880;54;20002;-80
2023/04/11 02:33:36;;;;;;;;;;;;;;;11.88;85.62;99472.09;1087941;54;19934;-81
2023/04/11 02:34:46;;;;;;;;;;;;;;;11.90;86.15;99470.09;1087534;54;19950;-81
2023/04/11 02:36:00;;;;;;;;;;;;;;;11.97;85.56;99463.09;1090442;39;20377;-80
2023/04/11 02:37:06;;;;;;;;;;;;;;;12.04;85.23;99457.03;1087477;54;19949;-80
2023/04/11 02:38:16;;;;;;;;;;;;;;;11.99;85.99;99453.03;1087478;54;20031;-81
2023/04/11 02:39:29;;;;;;;;;;;;;;;11.96;85.88;99469.41;1087429;54;19957;-80
2023/04/11 02:40:44;;;;;;;;;;;;;;;11.89;86.31;99465.75;1087560;54;19950;-80
2023/04/11 02:42:06;;;;;;;;;;;;;;;11.88;86.19;99474.78;1087449;54;19984;-81
2023/04/11 02:43:19;;;;;;;;;;;;;;;11.90;86.56;99453.16;1086779;54;20041;-81
2023/04/11 02:44:21;;;;;;;;;;;;;;;11.91;86.47;99466.38;1087427;54;19938;-81
2023/04/11 02:45:40;;;;;;;;;;;;;;;11.82;86.69;99462.88;1088393;39;20432;-80
2023/04/11 02:46:44;;;;;;;;;;;;;;;11.75;86.28;99469.06;1087362;54;19956;-80
2023/04/11 02:47:55;;;;;;;;;;;;;;;11.71;86.58;99472.06;1087326;54;19950;-81
2023/04/11 02:48:56;;;;;;;;;;;;;;;11.60;87.80;99472.41;1087304;54;19942;-80
2023/04/11 02:50:03;;;;;;;;;;;;;;;11.61;87.38;99470.56;1087102;54;19951;-80
2023/04/11 02:51:05;;;;;;;;;;;;;;;11.57;87.87;99480.75;1087291;54;19947;-80
2023/04/11 02:52:09;;;;;;;;;;;;;;;11.55;87.93;99472.06;1087389;54;19950;-80
2023/04/11 02:53:11;;;;;;;;;;;;;;;11.47;87.44;99486.28;1087083;54;19957;-80
2023/04/11 02:54:15;;;;;;;;;;;;;;;11.47;88.23;99488.97;1086916;54;19998;-80
2023/04/11 02:55:18;;;;;;;;;;;;;;;11.41;87.68;99497.63;1086915;54;20472;-80
2023/04/11 02:56:36;;;;;;;;;;;;;;;11.38;87.95;99492.63;1086978;54;19958;-80
2023/04/11 02:57:40;;;;;;;;;;;;;;;11.39;88.11;99495.13;1087015;54;19973;-81
2023/04/11 02:58:44;;;;;;;;;;;;;;;11.37;87.38;99499.78;1086905;46;19947;-80
2023/04/11 02:59:46;;;;;;;;;;;;;;;11.36;87.31;99484.72;1087212;54;19951;-81
2023/04/11 03:00:51;;;;;;;;;;;;;;;11.39;86.98;99489.78;1087150;54;20568;-80
2023/04/11 03:01:55;;;;;;;;;;;;;;;11.32;86.73;99483.41;1087147;54;19943;-80
2023/04/11 03:02:59;;;;;;;;;;;;;;;11.37;86.21;99494.44;1087426;54;19958;-80
2023/04/11 03:04:00;;;;;;;;;;;;;;;11.26;86.88;99500.09;1086968;54;19946;-80
2023/04/11 03:05:05;;;;;;;;;;;;;;;11.18;86.49;99510.78;1089497;39;20456;-80
2023/04/11 03:06:07;;;;;;;;;;;;;;;11.17;86.69;99503.75;1087191;54;19947;-80
2023/04/11 03:07:11;;;;;;;;;;;;;;;11.11;86.15;99502.53;1087373;54;19950;-79
2023/04/11 03:08:12;;;;;;;;;;;;;;;11.08;86.83;99506.38;1087250;47;19958;-80
2023/04/11 03:09:16;;;;;;;;;;;;;;;11.05;86.58;99509.38;1087032;46;19993;-80
2023/04/11 03:10:17;;;;;;;;;;;;;;;10.98;86.90;99513.69;1086899;54;19947;-81
2023/04/11 03:11:21;;;;;;;;;;;;;;;11.02;86.91;99520.41;1087041;54;19953;-80
2023/04/11 03:12:25;;;;;;;;;;;;;;;11.05;86.87;99519.25;1087317;54;19942;-79
2023/04/11 03:13:28;;;;;;;;;;;;;;;11.03;86.86;99515.88;1088275;39;20251;-80
2023/04/11 03:14:30;;;;;;;;;;;;;;;10.99;86.87;99523.41;1087460;54;19942;-80
2023/04/11 03:15:33;;;;;;;;;;;;;;;11.05;86.89;99525.44;1089066;46;19943;-80
2023/04/11 03:16:34;;;;;;;;;;;;;;;11.07;86.57;99512.72;1087056;54;19950;-80
2023/04/11 03:17:38;;;;;;;;;;;;;;;11.04;86.63;99510.41;1087605;39;20463;-80
2023/04/11 03:18:39;;;;;;;;;;;;;;;11.11;86.36;99512.41;1087270;54;19954;-81
2023/04/11 03:19:45;;;;;;;;;;;;;;;11.19;85.50;99512.44;1086896;54;19962;-80
2023/04/11 03:20:46;;;;;;;;;;;;;;;11.11;85.98;99505.22;1086612;54;19951;-79
2023/04/11 03:21:50;;;;;;;;;;;;;;;11.12;86.03;99512.25;1087170;54;19947;-81
2023/04/11 03:22:51;;;;;;;;;;;;;;;11.06;86.15;99510.22;1087247;54;20496;-81
2023/04/11 03:23:55;;;;;;;;;;;;;;;11.03;85.78;99516.75;1087296;54;19949;-80
2023/04/11 03:24:56;;;;;;;;;;;;;;;11.02;86.15;99517.75;1087313;54;19947;-79
2023/04/11 03:26:01;;;;;;;;;;;;;;;10.95;85.71;99513.19;1088798;39;20476;-80
2023/04/11 03:27:03;;;;;;;;;;;;;;;11.04;85.75;99502.38;1087377;54;19950;-80
2023/04/11 03:28:09;;;;;;;;;;;;;;;11.07;84.20;99495.84;1087291;54;19957;-80
2023/04/11 03:29:10;;;;;;;;;;;;;;;11.12;84.22;99496.19;1087349;54;20049;-80
2023/04/11 03:30:15;;;;;;;;;;;;;;;11.06;83.89;99502.22;1087461;46;19947;-79
2023/04/11 03:31:17;;;;;;;;;;;;;;;11.05;84.04;99504.03;1087208;54;20442;-80
2023/04/11 03:32:21;;;;;;;;;;;;;;;11.04;84.65;99501.53;1087046;39;20459;-79
2023/04/11 03:33:22;;;;;;;;;;;;;;;11.02;83.84;99504.38;1086279;54;19942;-79
2023/04/11 03:34:26;;;;;;;;;;;;;;;11.14;83.85;99512.09;1086604;54;19947;-80
2023/04/11 03:35:28;;;;;;;;;;;;;;;11.16;83.66;99510.94;1086638;54;19950;-80
2023/04/11 03:36:32;;;;;;;;;;;;;;;11.11;83.34;99507.06;1086783;39;20424;-80
2023/04/11 03:37:33;;;;;;;;;;;;;;;11.21;83.33;99502.44;1086999;54;19954;-80
2023/04/11 03:38:36;;;;;;;;;;;;;;;11.24;83.19;99502.13;1086692;54;19951;-80
2023/04/11 03:39:37;;;;;;;;;;;;;;;11.22;83.43;99493.41;1086805;54;19947;-79
2023/04/11 03:40:41;;;;;;;;;;;;;;;11.18;82.88;99498.25;1086769;54;20537;-80
2023/04/11 03:41:43;;;;;;;;;;;;;;;11.09;82.87;99499.22;1086829;54;19950;-80
2023/04/11 03:42:47;;;;;;;;;;;;;;;11.11;82.58;99501.72;1086828;54;19946;-79
2023/04/11 03:43:50;;;;;;;;;;;;;;;11.05;82.77;99506.69;1086853;54;19950;-81
2023/04/11 03:44:54;;;;;;;;;;;;;;;11.01;83.22;99510.72;1086649;54;19943;-79
2023/04/11 03:45:56;;;;;;;;;;;;;;;10.96;82.95;99509.50;1086692;54;19950;-80
2023/04/11 03:47:00;;;;;;;;;;;;;;;11.00;83.21;99516.22;1088298;39;20437;-81
2023/04/11 03:48:02;;;;;;;;;;;;;;;11.04;82.33;99529.13;1086712;46;19957;-80
2023/04/11 03:49:06;;;;;;;;;;;;;;;10.95;82.91;99530.09;1086871;54;20437;-80
2023/04/11 03:50:07;;;;;;;;;;;;;;;10.97;82.72;99528.06;1086723;54;20326;-80
2023/04/11 03:51:11;;;;;;;;;;;;;;;10.97;82.77;99528.06;1086682;54;19943;-80
2023/04/11 03:52:16;;;;;;;;;;;;;;;10.99;82.49;99534.09;1086666;39;20432;-79
2023/04/11 03:53:20;;;;;;;;;;;;;;;11.02;82.50;99540.97;1086507;54;19950;-79
2023/04/11 03:54:21;;;;;;;;;;;;;;;11.05;82.05;99540.66;1086489;54;19943;-80
2023/04/11 03:55:25;;;;;;;;;;;;;;;11.07;82.01;99542.16;1086492;54;19943;-79
2023/04/11 03:56:26;;;;;;;;;;;;;;;11.17;81.38;99538.53;1086775;54;20054;-79
2023/04/11 03:57:31;;;;;;;;;;;;;;;11.25;80.69;99530.50;1086958;54;19954;-79
2023/04/11 03:58:32;;;;;;;;;;;;;;;11.31;80.52;99535.25;1086846;54;19967;-79
2023/04/11 03:59:38;;;;;;;;;;;;;;;11.24;80.71;99548.44;1086849;54;19941;-80
2023/04/11 04:00:40;;;;;;;;;;;;;;;11.33;80.15;99535.06;1086683;54;19951;-79
2023/04/11 04:01:43;;;;;;;;;;;;;;;11.39;79.76;99527.22;1087572;46;19958;-80
2023/04/11 04:02:44;;;;;;;;;;;;;;;11.28;80.78;99519.50;1086689;54;19950;-80
2023/04/11 04:03:48;;;;;;;;;;;;;;;11.13;80.64;99529.16;1086788;54;19969;-80
2023/04/11 04:04:54;;;;;;;;;;;;;;;11.17;81.05;99525.13;1088028;39;20510;-80
2023/04/11 04:05:57;;;;;;;;;;;;;;;11.23;80.98;99520.00;1086686;54;19954;-80
2023/04/11 04:07:03;;;;;;;;;;;;;;;11.31;80.86;99519.19;1086689;54;19958;-80
2023/04/11 04:08:07;;;;;;;;;;;;;;;11.13;81.61;99531.84;1089171;39;20078;-80
2023/04/11 04:09:08;;;;;;;;;;;;;;;11.10;81.70;99518.78;1086805;54;19956;-80
2023/04/11 04:10:18;;;;;;;;;;;;;;;11.04;82.44;99518.44;1088115;39;20452;-79
2023/04/11 04:11:19;;;;;;;;;;;;;;;11.00;83.54;99521.59;1087431;54;19954;-79
2023/04/11 04:12:24;;;;;;;;;;;;;;;11.06;82.53;99518.25;1087839;46;19943;-81
2023/04/11 04:13:26;;;;;;;;;;;;;;;10.99;82.75;99518.06;1087533;54;19947;-80
2023/04/11 04:14:32;;;;;;;;;;;;;;;11.04;82.23;99518.44;1087619;54;19969;-80
2023/04/11 04:15:36;;;;;;;;;;;;;;;11.06;82.41;99526.28;1087664;54;19962;-80
2023/04/11 04:16:46;;;;;;;;;;;;;;;11.05;82.25;99528.09;1087826;46;19946;-80
2023/04/11 04:17:53;;;;;;;;;;;;;;;11.11;83.01;99531.16;1087672;54;19967;-80
2023/04/11 04:19:06;;;;;;;;;;;;;;;11.05;83.30;99520.06;1087820;54;19973;-80
2023/04/11 04:20:15;;;;;;;;;;;;;;;10.92;84.08;99528.53;1087793;54;19954;-80
2023/04/11 04:21:19;;;;;;;;;;;;;;;10.91;83.58;99537.56;1090023;31;20697;-80
2023/04/11 04:22:21;;;;;;;;;;;;;;;10.87;84.04;99543.38;1087669;54;19942;-80
2023/04/11 04:23:25;;;;;;;;;;;;;;;10.80;84.06;99545.03;1088547;39;20420;-80
2023/04/11 04:24:28;;;;;;;;;;;;;;;10.82;84.10;99551.06;1087279;54;19947;-81
2023/04/11 04:25:56;;;;;;;;;;;;;;;10.77;84.86;99541.66;1087477;54;19942;-81
2023/04/11 04:26:59;;;;;;;;;;;;;;;10.82;84.85;99546.53;1087983;54;19953;-81
2023/04/11 04:28:21;;;;;;;;;;;;;;;10.85;84.30;99540.88;1087955;54;19942;-81
2023/04/11 04:29:37;;;;;;;;;;;;;;;10.88;84.44;99550.41;1088963;46;19943;-79
2023/04/11 04:30:41;;;;;;;;;;;;;;;10.92;84.34;99547.25;1088494;46;19932;-81
2023/04/11 04:31:51;;;;;;;;;;;;;;;10.85;84.50;99550.75;1088725;46;19943;-81
2023/04/11 04:32:57;;;;;;;;;;;;;;;10.72;85.15;99552.00;1087712;54;19951;-80
2023/04/11 04:34:07;;;;;;;;;;;;;;;10.81;84.70;99549.38;1088070;46;19949;-81
2023/04/11 04:35:09;;;;;;;;;;;;;;;10.79;84.91;99549.56;1088711;46;19966;-81
2023/04/11 04:36:16;;;;;;;;;;;;;;;10.71;85.80;99547.66;1089713;39;20455;-81
2023/04/11 04:37:20;;;;;;;;;;;;;;;10.60;86.71;99555.94;1087690;54;19954;-81
2023/04/11 04:38:27;;;;;;;;;;;;;;;10.53;86.64;99557.56;1087777;54;19948;-80
2023/04/11 04:39:32;;;;;;;;;;;;;;;10.65;86.18;99545.63;1087671;54;19973;-81
2023/04/11 04:40:36;;;;;;;;;;;;;;;10.58;86.14;99545.41;1089485;39;20345;-81
2023/04/11 04:41:38;;;;;;;;;;;;;;;10.60;85.93;99548.78;1087588;54;19987;-81
2023/04/11 04:42:42;;;;;;;;;;;;;;;10.56;86.26;99557.25;1087748;54;19950;-80
2023/04/11 04:43:58;;;;;;;;;;;;;;;10.59;85.59;99560.44;1087692;54;19975;-81
2023/04/11 04:45:02;;;;;;;;;;;;;;;10.68;85.38;99561.31;1087794;54;19973;-80
2023/04/11 04:46:06;;;;;;;;;;;;;;;10.56;85.22;99557.25;1087480;54;19950;-80
2023/04/11 04:47:13;;;;;;;;;;;;;;;10.62;84.83;99559.28;1087669;54;19976;-80
2023/04/11 04:48:24;;;;;;;;;;;;;;;10.59;85.03;99563.13;1087414;54;19981;-81
2023/04/11 04:49:33;;;;;;;;;;;;;;;10.61;84.75;99560.28;1087769;46;19985;-80
2023/04/11 04:50:38;;;;;;;;;;;;;;;10.70;84.23;99559.34;1087757;39;20123;-81
2023/04/11 04:51:40;;;;;;;;;;;;;;;10.76;83.65;99558.72;1089488;39;20131;-81
2023/04/11 04:52:45;;;;;;;;;;;;;;;10.59;84.46;99554.25;1087765;54;19931;-80
2023/04/11 04:53:46;;;;;;;;;;;;;;;10.58;84.97;99552.59;1087738;54;19935;-81
2023/04/11 04:54:50;;;;;;;;;;;;;;;10.48;85.52;99566.06;1087647;54;19947;-80
2023/04/11 04:55:51;;;;;;;;;;;;;;;10.40;86.47;99569.50;1087603;54;20639;-80
2023/04/11 04:56:56;;;;;;;;;;;;;;;10.40;85.61;99574.84;1087785;54;19954;-81
2023/04/11 04:57:57;;;;;;;;;;;;;;;10.32;85.59;99572.06;1087757;54;19943;-80
2023/04/11 04:59:01;;;;;;;;;;;;;;;10.34;86.10;99582.63;1087521;54;20686;-80
2023/04/11 05:00:10;;;;;;;;;;;;;;;10.27;86.28;99577.06;1087626;54;20017;-80
2023/04/11 05:01:19;;;;;;;;;;;;;;;10.17;86.67;99585.13;1087695;54;19994;-80
2023/04/11 05:02:25;;;;;;;;;;;;;;;10.21;86.91;99591.00;1089795;31;20529;-79
2023/04/11 05:03:34;;;;;;;;;;;;;;;10.28;86.84;99582.22;1089284;39;20393;-80
2023/04/11 05:04:35;;;;;;;;;;;;;;;10.13;86.82;99584.59;1087382;54;19954;-80
2023/04/11 05:05:39;;;;;;;;;;;;;;;10.11;87.34;99589.25;1087474;54;19943;-80
2023/04/11 05:06:41;;;;;;;;;;;;;;;10.15;87.40;99582.63;1087626;54;19950;-80
2023/04/11 05:07:47;;;;;;;;;;;;;;;10.10;87.80;99584.94;1087703;54;19990;-81
2023/04/11 05:08:49;;;;;;;;;;;;;;;10.09;87.86;99577.03;1087661;54;19951;-81
2023/04/11 05:09:53;;;;;;;;;;;;;;;10.10;87.96;99584.94;1087618;54;19965;-80
2023/04/11 05:10:55;;;;;;;;;;;;;;;10.17;87.21;99589.66;1089909;39;20115;-80
2023/04/11 05:11:58;;;;;;;;;;;;;;;10.14;87.07;99601.47;1087571;54;19934;-80
2023/04/11 05:12:59;;;;;;;;;;;;;;;10.03;87.23;99599.88;1087475;54;19949;-81
2023/04/11 05:14:03;;;;;;;;;;;;;;;10.06;88.00;99604.09;1087610;54;19943;-80
2023/04/11 05:15:10;;;;;;;;;;;;;;;9.99;87.76;99602.00;1087433;54;19943;-80
2023/04/11 05:16:13;;;;;;;;;;;;;;;9.96;87.74;99604.13;1087525;54;20024;-80
2023/04/11 05:17:17;;;;;;;;;;;;;;;9.90;87.91;99602.09;1092315;39;20258;-79
2023/04/11 05:18:21;;;;;;;;;;;;;;;9.92;87.37;99608.13;1087554;46;19927;-79
2023/04/11 05:19:24;;;;;;;;;;;;;;;9.93;86.68;99609.78;1087622;54;19943;-80
2023/04/11 05:20:28;;;;;;;;;;;;;;;9.94;87.48;99595.44;1088400;39;20570;-81
2023/04/11 05:21:29;;;;;;;;;;;;;;;9.91;87.69;99603.75;1087925;54;19961;-80
2023/04/11 05:22:37;;;;;;;;;;;;;;;9.90;86.99;99612.75;1087828;54;19950;-80
2023/04/11 05:23:38;;;;;;;;;;;;;;;9.91;87.96;99620.63;1087585;54;19962;-80
2023/04/11 05:24:42;;;;;;;;;;;;;;;9.91;87.59;99620.63;1087181;54;19935;-79
2023/04/11 05:25:43;;;;;;;;;;;;;;;10.01;87.10;99609.88;1088304;46;19985;-80
2023/04/11 05:26:47;;;;;;;;;;;;;;;10.05;87.14;99613.91;1087689;54;19954;-81
2023/04/11 05:27:48;;;;;;;;;;;;;;;10.04;87.07;99611.41;1088855;39;20677;-79
2023/04/11 05:28:54;;;;;;;;;;;;;;;9.93;86.51;99615.09;1087466;54;19942;-81
2023/04/11 05:29:56;;;;;;;;;;;;;;;9.95;87.35;99631.81;1086977;54;19951;-80
2023/04/11 05:31:02;;;;;;;;;;;;;;;9.88;87.29;99633.44;1086911;54;20646;-80
2023/04/11 05:32:03;;;;;;;;;;;;;;;9.84;87.30;99630.22;1087382;54;19950;-80
2023/04/11 05:33:11;;;;;;;;;;;;;;;9.80;86.61;99627.00;1087848;54;20027;-80
2023/04/11 05:34:15;;;;;;;;;;;;;;;9.78;87.07;99618.31;1087936;54;20647;-80
2023/04/11 05:35:16;;;;;;;;;;;;;;;9.86;87.44;99608.69;1088506;47;19943;-80
2023/04/11 05:36:21;;;;;;;;;;;;;;;9.78;86.00;99606.78;1091467;39;20428;-80
2023/04/11 05:37:25;;;;;;;;;;;;;;;9.82;85.57;99617.00;1088490;47;19938;-80
2023/04/11 05:38:37;;;;;;;;;;;;;;;9.90;85.25;99608.25;1087539;54;19946;-81
2023/04/11 05:39:38;;;;;;;;;;;;;;;9.81;84.78;99611.81;1087138;54;19954;-81
2023/04/11 05:40:45;;;;;;;;;;;;;;;9.77;84.13;99613.97;1087338;54;19943;-81